Time;durP1;ratioP1;P1;durP2;ratioP2;P2;SDS_P1;SDS_P2;PMS_P1;PMS_P2;Temp;Humidity;BMP_temperature;BMP_pressure;BME280_temperature;BME280_humidity;BME280_pressure;Samples;Min_cycle;Max_cycle;Signal;HPM_P1;HPM_P2
2023/01/27 00:02:08;;;;;;;18.98;10.70;;;;;;;;;;5060590;28;20036;-61
2023/01/27 00:04:34;;;;;;;22.90;12.98;;;;;;;;;;5083370;28;20033;-61
2023/01/27 00:07:00;;;;;;;26.13;13.65;;;;;;;;;;5087782;28;20174;-60
2023/01/27 00:09:26;;;;;;;29.50;14.63;;;;;;;;;;5080720;28;20051;-60
2023/01/27 00:14:50;;;;;;;23.52;13.20;;;;;;;;;;5048797;28;20048;-60
2023/01/27 00:17:16;;;;;;;25.92;15.10;;;;;;;;;;5085303;28;20047;-61
2023/01/27 00:19:43;;;;;;;21.63;11.50;;;;;;;;;;5083710;28;20044;-60
2023/01/27 00:24:54;;;;;;;30.13;14.10;;;;;;;;;;5089189;28;20040;-61
2023/01/27 00:27:20;;;;;;;27.60;13.90;;;;;;;;;;5083694;28;20407;-61
2023/01/27 00:29:46;;;;;;;25.40;12.10;;;;;;;;;;5075393;28;20036;-61
2023/01/27 00:34:56;;;;;;;24.35;13.38;;;;;;;;;;5082756;28;20044;-60
2023/01/27 00:37:22;;;;;;;16.95;10.35;;;;;;;;;;5074378;28;20561;-61
2023/01/27 00:39:48;;;;;;;17.27;10.20;;;;;;;;;;5081179;28;20135;-60
2023/01/27 00:42:15;;;;;;;21.33;9.75;;;;;;;;;;5085543;28;20059;-61
2023/01/27 00:45:47;;;;;;;19.85;10.48;;;;;;;;;;5083291;28;20036;-61
2023/01/27 00:47:27;;;;;;;20.65;10.15;;;;;;;;;;5084373;28;20036;-61
2023/01/27 00:49:53;;;;;;;18.58;10.63;;;;;;;;;;5084237;28;20036;-61
2023/01/27 00:52:19;;;;;;;17.55;9.32;;;;;;;;;;5084681;28;20123;-61
2023/01/27 00:54:45;;;;;;;15.68;9.05;;;;;;;;;;5083230;28;20440;-61
2023/01/27 00:57:11;;;;;;;20.55;10.75;;;;;;;;;;5086340;28;20469;-61
2023/01/27 00:59:37;;;;;;;20.80;10.70;;;;;;;;;;5093812;28;20068;-61
2023/01/27 01:02:03;;;;;;;17.38;9.50;;;;;;;;;;5080081;28;20115;-61
2023/01/27 01:04:29;;;;;;;17.17;9.95;;;;;;;;;;5082969;28;20118;-61
2023/01/27 01:06:55;;;;;;;20.75;11.57;;;;;;;;;;5092080;28;20053;-61
2023/01/27 01:09:21;;;;;;;15.10;9.65;;;;;;;;;;5085499;28;20082;-61
2023/01/27 01:11:47;;;;;;;18.35;10.85;;;;;;;;;;5086103;28;20039;-60
2023/01/27 01:14:13;;;;;;;17.20;8.52;;;;;;;;;;5082144;28;20036;-61
2023/01/27 01:16:39;;;;;;;19.10;9.52;;;;;;;;;;5090317;28;20529;-61
2023/01/27 01:19:05;;;;;;;19.02;7.43;;;;;;;;;;5091506;28;20040;-61
2023/01/27 01:21:31;;;;;;;13.60;8.40;;;;;;;;;;5078039;28;20112;-61
2023/01/27 01:23:57;;;;;;;14.02;7.00;;;;;;;;;;5085253;28;21319;-61
2023/01/27 01:26:23;;;;;;;12.43;6.93;;;;;;;;;;5092277;28;20039;-61
2023/01/27 01:28:49;;;;;;;14.75;7.53;;;;;;;;;;5088287;28;20420;-61
2023/01/27 01:31:16;;;;;;;10.57;7.57;;;;;;;;;;5087769;28;20043;-61
2023/01/27 01:33:43;;;;;;;15.25;8.20;;;;;;;;;;5075471;28;20063;-60
2023/01/27 01:36:10;;;;;;;14.75;7.57;;;;;;;;;;5093357;28;20040;-60
2023/01/27 01:38:36;;;;;;;11.88;6.32;;;;;;;;;;5083142;28;20394;-61
2023/01/27 01:41:03;;;;;;;11.85;6.95;;;;;;;;;;5085857;28;20481;-60
2023/01/27 01:43:29;;;;;;;10.18;5.45;;;;;;;;;;5079006;28;20508;-61
2023/01/27 01:45:56;;;;;;;9.43;5.38;;;;;;;;;;5084159;28;20108;-61
2023/01/27 01:48:25;;;;;;;9.35;5.75;;;;;;;;;;5087279;28;20478;-61
2023/01/27 01:51:12;;;;;;;10.77;5.65;;;;;;;;;;5090709;28;20059;-61
2023/01/27 01:53:43;;;;;;;8.95;6.28;;;;;;;;;;5042490;28;20110;-61
2023/01/27 01:56:16;;;;;;;12.77;6.10;;;;;;;;;;5082955;28;20036;-61
2023/01/27 01:58:43;;;;;;;9.32;5.20;;;;;;;;;;5084521;28;20032;-60
2023/01/27 02:01:09;;;;;;;9.38;5.05;;;;;;;;;;5084963;28;20534;-61
2023/01/27 02:03:37;;;;;;;7.03;4.07;;;;;;;;;;5088855;28;20040;-61
2023/01/27 02:06:04;;;;;;;9.25;4.28;;;;;;;;;;5073001;28;20090;-61
2023/01/27 02:08:33;;;;;;;9.40;3.97;;;;;;;;;;5064006;28;20178;-61
2023/01/27 02:11:00;;;;;;;4.85;3.53;;;;;;;;;;5082823;28;20036;-61
2023/01/27 02:13:26;;;;;;;7.80;5.05;;;;;;;;;;5087482;28;20039;-61
2023/01/27 02:15:52;;;;;;;8.48;5.03;;;;;;;;;;5083638;28;20093;-61
2023/01/27 02:18:19;;;;;;;7.78;4.47;;;;;;;;;;5085063;28;20036;-61
2023/01/27 02:20:46;;;;;;;6.78;4.03;;;;;;;;;;5088847;28;20093;-61
2023/01/27 02:23:27;;;;;;;8.68;4.25;;;;;;;;;;5080437;28;20414;-61
2023/01/27 02:25:56;;;;;;;7.78;4.40;;;;;;;;;;5079551;28;20115;-61
2023/01/27 02:28:25;;;;;;;9.35;4.85;;;;;;;;;;5082334;28;20033;-61
2023/01/27 02:30:51;;;;;;;5.05;3.30;;;;;;;;;;5080653;28;20564;-61
2023/01/27 02:33:17;;;;;;;8.82;4.22;;;;;;;;;;5089690;28;20115;-61
2023/01/27 02:35:47;;;;;;;5.18;3.17;;;;;;;;;;5083324;28;20032;-61
2023/01/27 02:38:13;;;;;;;5.30;3.20;;;;;;;;;;5076143;28;20044;-61
2023/01/27 02:40:40;;;;;;;4.97;2.97;;;;;;;;;;5079847;28;20040;-61
2023/01/27 02:43:06;;;;;;;5.57;2.83;;;;;;;;;;5089244;28;20032;-61
2023/01/27 02:45:32;;;;;;;7.53;3.40;;;;;;;;;;5076876;28;20089;-61
2023/01/27 02:47:58;;;;;;;6.85;3.78;;;;;;;;;;5076325;28;20064;-61
2023/01/27 02:50:24;;;;;;;3.95;2.92;;;;;;;;;;5092200;28;20036;-61
2023/01/27 02:52:50;;;;;;;5.13;3.50;;;;;;;;;;5080818;28;20076;-61
2023/01/27 02:55:16;;;;;;;6.40;3.22;;;;;;;;;;5085895;28;20403;-61
2023/01/27 02:57:42;;;;;;;6.13;3.42;;;;;;;;;;5081407;28;20083;-62
2023/01/27 03:00:12;;;;;;;3.88;2.70;;;;;;;;;;5090125;28;20040;-61
2023/01/27 03:02:37;;;;;;;4.40;3.00;;;;;;;;;;5083873;28;20066;-62
2023/01/27 03:05:04;;;;;;;5.38;2.95;;;;;;;;;;5075548;28;20032;-61
2023/01/27 03:07:30;;;;;;;5.63;2.88;;;;;;;;;;5074909;28;20560;-61
2023/01/27 03:09:56;;;;;;;3.92;2.50;;;;;;;;;;5087255;28;20071;-61
2023/01/27 03:12:22;;;;;;;4.32;3.25;;;;;;;;;;5090797;28;20042;-61
2023/01/27 03:20:18;;;;;;;2.92;2.28;;;;;;;;;;5065372;28;20043;-68
2023/01/27 03:22:45;;;;;;;4.10;2.40;;;;;;;;;;5070863;28;20047;-68
2023/01/27 03:25:11;;;;;;;5.22;2.90;;;;;;;;;;5062402;28;20090;-67
2023/01/27 03:27:37;;;;;;;3.30;2.53;;;;;;;;;;5045291;28;20090;-68
2023/01/27 03:30:03;;;;;;;5.63;2.55;;;;;;;;;;5051862;28;20612;-68
2023/01/27 03:32:30;;;;;;;6.63;2.63;;;;;;;;;;5064575;28;20039;-68
2023/01/27 03:34:56;;;;;;;3.25;2.20;;;;;;;;;;5069521;28;20048;-67
2023/01/27 03:48:30;;;;;;;3.67;2.10;;;;;;;;;;5070383;28;20043;-67
2023/01/27 03:50:57;;;;;;;2.20;2.00;;;;;;;;;;5069000;28;20085;-68
2023/01/27 03:53:23;;;;;;;3.10;2.13;;;;;;;;;;5070560;28;20175;-68
2023/01/27 03:55:49;;;;;;;2.47;2.10;;;;;;;;;;5071120;28;20490;-68
2023/01/27 03:58:18;;;;;;;6.45;2.20;;;;;;;;;;5069993;28;20043;-68
2023/01/27 04:01:05;;;;;;;3.08;1.90;;;;;;;;;;5069111;28;20040;-67
2023/01/27 04:09:04;;;;;;;3.45;2.20;;;;;;;;;;5070586;28;20131;-67
2023/01/27 04:14:29;;;;;;;1.90;1.80;;;;;;;;;;5039484;28;20497;-67
2023/01/27 04:17:03;;;;;;;2.30;1.92;;;;;;;;;;5069760;28;20037;-67
2023/01/27 04:19:29;;;;;;;2.70;1.58;;;;;;;;;;5067659;28;20699;-67
2023/01/27 04:21:55;;;;;;;4.00;2.22;;;;;;;;;;5071248;28;20045;-67
2023/01/27 04:24:23;;;;;;;4.18;2.30;;;;;;;;;;5065154;28;20079;-67
2023/01/27 04:26:50;;;;;;;2.35;2.13;;;;;;;;;;5069628;28;20068;-67
2023/01/27 04:29:16;;;;;;;3.83;2.47;;;;;;;;;;5068467;28;20039;-67
2023/01/27 04:31:42;;;;;;;2.58;2.10;;;;;;;;;;5071043;28;20037;-67
2023/01/27 04:34:10;;;;;;;4.13;2.50;;;;;;;;;;5069626;28;20178;-66
2023/01/27 04:36:36;;;;;;;2.72;1.95;;;;;;;;;;5070148;28;20127;-68
2023/01/27 04:39:02;;;;;;;3.97;2.20;;;;;;;;;;5065513;28;20186;-68
2023/01/27 04:41:28;;;;;;;2.78;2.42;;;;;;;;;;5070436;28;20071;-67
2023/01/27 04:43:54;;;;;;;3.88;2.50;;;;;;;;;;5067052;28;20052;-68
2023/01/27 04:46:20;;;;;;;3.05;2.47;;;;;;;;;;5070912;28;20036;-67
2023/01/27 04:48:46;;;;;;;2.95;2.22;;;;;;;;;;5069053;28;20167;-67
2023/01/27 04:51:12;;;;;;;2.05;1.83;;;;;;;;;;5063530;28;20501;-68
2023/01/27 04:53:38;;;;;;;4.20;2.58;;;;;;;;;;5068474;28;20055;-67
2023/01/27 04:56:05;;;;;;;3.00;2.35;;;;;;;;;;5070414;28;20040;-68
2023/01/27 04:58:31;;;;;;;2.33;2.13;;;;;;;;;;5069096;28;20044;-67
2023/01/27 05:00:58;;;;;;;2.65;2.33;;;;;;;;;;5066157;28;20045;-67
2023/01/27 05:03:24;;;;;;;3.83;2.20;;;;;;;;;;5067489;28;20064;-68
2023/01/27 05:05:50;;;;;;;3.00;1.77;;;;;;;;;;5072862;28;20068;-68
2023/01/27 05:08:16;;;;;;;2.50;1.98;;;;;;;;;;5073684;28;20044;-67
2023/01/27 05:10:46;;;;;;;3.70;1.70;;;;;;;;;;5067686;28;20040;-67
2023/01/27 05:13:12;;;;;;;2.78;1.60;;;;;;;;;;5071016;28;20037;-67
2023/01/27 05:15:38;;;;;;;2.67;1.58;;;;;;;;;;5073149;28;20047;-67
2023/01/27 05:18:04;;;;;;;2.80;1.58;;;;;;;;;;5073282;28;20045;-67
2023/01/27 05:20:30;;;;;;;2.10;1.40;;;;;;;;;;5064537;28;20076;-67
2023/01/27 05:23:34;;;;;;;2.80;1.50;;;;;;;;;;5065958;28;20045;-68
2023/01/27 05:25:43;;;;;;;2.97;1.60;;;;;;;;;;5070794;28;20556;-68
2023/01/27 05:28:09;;;;;;;3.70;1.77;;;;;;;;;;5071316;28;20112;-68
2023/01/27 05:30:35;;;;;;;1.75;1.42;;;;;;;;;;5071362;28;20042;-68
2023/01/27 05:33:01;;;;;;;3.53;1.30;;;;;;;;;;5061372;28;20059;-68
2023/01/27 05:35:27;;;;;;;2.33;1.98;;;;;;;;;;5053731;28;20044;-68
2023/01/27 05:37:53;;;;;;;1.85;1.10;;;;;;;;;;5070294;28;20044;-67
2023/01/27 05:40:19;;;;;;;4.20;1.63;;;;;;;;;;5071753;28;20491;-67
2023/01/27 05:42:45;;;;;;;2.67;1.88;;;;;;;;;;5072473;28;20048;-69
2023/01/27 05:45:11;;;;;;;2.15;1.63;;;;;;;;;;5077876;28;20040;-68
2023/01/27 05:47:37;;;;;;;7.03;1.83;;;;;;;;;;5072643;28;20119;-68
2023/01/27 05:50:03;;;;;;;3.65;1.75;;;;;;;;;;5069749;28;20520;-68
2023/01/27 05:52:29;;;;;;;2.55;1.65;;;;;;;;;;5071441;28;20044;-68
2023/01/27 05:54:55;;;;;;;2.55;1.65;;;;;;;;;;5072915;28;20452;-68
2023/01/27 05:57:21;;;;;;;3.33;1.52;;;;;;;;;;5071863;28;20075;-68
2023/01/27 05:59:47;;;;;;;3.58;2.15;;;;;;;;;;5071353;28;20489;-68
2023/01/27 06:02:14;;;;;;;2.72;1.80;;;;;;;;;;5072285;28;20036;-68
2023/01/27 06:04:40;;;;;;;3.70;2.03;;;;;;;;;;5067324;28;20044;-68
2023/01/27 06:07:06;;;;;;;3.63;2.33;;;;;;;;;;5072711;28;20393;-69
2023/01/27 06:09:32;;;;;;;3.80;1.92;;;;;;;;;;5071860;28;20040;-69
2023/01/27 06:11:58;;;;;;;1.60;1.50;;;;;;;;;;5063578;28;20125;-68
2023/01/27 06:14:24;;;;;;;3.85;2.03;;;;;;;;;;5068715;28;20048;-68
2023/01/27 06:16:52;;;;;;;4.55;2.33;;;;;;;;;;5070421;28;20052;-68
2023/01/27 06:19:18;;;;;;;2.55;1.63;;;;;;;;;;5072643;28;20044;-68
2023/01/27 06:21:44;;;;;;;2.63;1.88;;;;;;;;;;5071050;28;20037;-68
2023/01/27 06:24:10;;;;;;;2.78;1.73;;;;;;;;;;5072034;28;20036;-69
2023/01/27 06:26:36;;;;;;;2.60;1.92;;;;;;;;;;5073165;28;20037;-68
2023/01/27 06:29:02;;;;;;;5.25;1.88;;;;;;;;;;5068286;28;20033;-68
2023/01/27 06:31:28;;;;;;;4.35;1.90;;;;;;;;;;5071097;28;20039;-68
2023/01/27 06:33:54;;;;;;;4.68;2.15;;;;;;;;;;5070823;28;20086;-68
2023/01/27 06:36:21;;;;;;;2.72;2.33;;;;;;;;;;5072683;28;20498;-68
2023/01/27 06:38:48;;;;;;;5.15;2.30;;;;;;;;;;5070737;28;20490;-68
2023/01/27 06:41:14;;;;;;;2.88;1.98;;;;;;;;;;5059076;28;20037;-68
2023/01/27 06:43:40;;;;;;;5.82;2.30;;;;;;;;;;5060302;28;20033;-68
2023/01/27 06:46:06;;;;;;;4.68;2.97;;;;;;;;;;5069552;28;20054;-68
2023/01/27 06:48:32;;;;;;;3.58;1.70;;;;;;;;;;5069556;28;20494;-68
2023/01/27 06:50:58;;;;;;;6.28;2.70;;;;;;;;;;5069665;28;20045;-68
2023/01/27 06:53:25;;;;;;;5.13;2.40;;;;;;;;;;5062909;28;20094;-68
2023/01/27 06:55:57;;;;;;;5.55;2.75;;;;;;;;;;5066874;28;20530;-67
2023/01/27 06:58:24;;;;;;;3.42;2.22;;;;;;;;;;5068221;28;20123;-68
2023/01/27 07:00:50;;;;;;;4.82;2.55;;;;;;;;;;5070457;28;20048;-68
2023/01/27 07:03:16;;;;;;;4.13;2.17;;;;;;;;;;5069606;28;20115;-68
2023/01/27 07:05:42;;;;;;;4.68;2.83;;;;;;;;;;5067090;28;20116;-68
2023/01/27 07:08:09;;;;;;;3.38;2.25;;;;;;;;;;5071555;28;20040;-68
2023/01/27 07:10:35;;;;;;;5.65;2.50;;;;;;;;;;5065451;28;20510;-67
2023/01/27 07:13:08;;;;;;;5.68;2.50;;;;;;;;;;5064922;28;20124;-67
2023/01/27 07:15:34;;;;;;;7.13;2.50;;;;;;;;;;5070908;28;20075;-66
2023/01/27 07:18:01;;;;;;;3.90;2.25;;;;;;;;;;5070984;28;20044;-68
2023/01/27 07:20:27;;;;;;;3.30;2.33;;;;;;;;;;5068783;28;20074;-68
2023/01/27 07:22:56;;;;;;;6.10;2.80;;;;;;;;;;5069465;28;20040;-68
2023/01/27 07:25:22;;;;;;;4.80;2.65;;;;;;;;;;5071008;28;20044;-68
2023/01/27 07:27:48;;;;;;;5.28;3.40;;;;;;;;;;5067149;28;20047;-67
2023/01/27 07:30:14;;;;;;;4.82;3.35;;;;;;;;;;5065786;28;20498;-67
2023/01/27 07:32:40;;;;;;;6.20;2.92;;;;;;;;;;5060973;28;20036;-67
2023/01/27 07:35:06;;;;;;;4.43;3.10;;;;;;;;;;5070560;28;20094;-68
2023/01/27 07:37:33;;;;;;;6.03;3.00;;;;;;;;;;5064181;28;20060;-68
2023/01/27 07:39:59;;;;;;;4.00;3.45;;;;;;;;;;5066444;28;20041;-67
2023/01/27 07:42:25;;;;;;;3.67;3.08;;;;;;;;;;5070038;28;20147;-67
2023/01/27 07:44:51;;;;;;;3.80;2.70;;;;;;;;;;5063213;28;20060;-67
2023/01/27 07:47:17;;;;;;;3.15;2.65;;;;;;;;;;5070140;28;20443;-68
2023/01/27 07:49:43;;;;;;;5.43;3.28;;;;;;;;;;5071749;28;20044;-68
2023/01/27 07:52:09;;;;;;;4.60;2.83;;;;;;;;;;5067061;28;20448;-67
2023/01/27 07:54:35;;;;;;;5.53;2.60;;;;;;;;;;5066241;28;20041;-67
2023/01/27 07:57:01;;;;;;;6.00;3.40;;;;;;;;;;5066490;28;20434;-67
2023/01/27 07:59:27;;;;;;;3.80;3.13;;;;;;;;;;5063975;28;20047;-67
2023/01/27 08:01:53;;;;;;;5.03;3.20;;;;;;;;;;5063550;28;20068;-68
2023/01/27 08:04:19;;;;;;;5.22;2.53;;;;;;;;;;5065671;28;20450;-67
2023/01/27 08:06:45;;;;;;;4.63;2.95;;;;;;;;;;5069402;28;20128;-68
2023/01/27 08:09:11;;;;;;;5.60;3.40;;;;;;;;;;5070581;28;20114;-67
2023/01/27 08:11:37;;;;;;;5.50;3.20;;;;;;;;;;5052538;28;20037;-67
2023/01/27 08:14:03;;;;;;;5.13;3.33;;;;;;;;;;5070873;28;20394;-67
2023/01/27 08:16:29;;;;;;;5.78;2.97;;;;;;;;;;5071248;28;20040;-68
2023/01/27 08:18:55;;;;;;;3.65;2.88;;;;;;;;;;5071167;28;20119;-68
2023/01/27 08:21:22;;;;;;;5.88;2.80;;;;;;;;;;5059054;28;20494;-67
2023/01/27 08:23:48;;;;;;;5.32;3.45;;;;;;;;;;5067515;28;20044;-68
2023/01/27 08:26:14;;;;;;;4.70;2.78;;;;;;;;;;5070138;28;20036;-68
2023/01/27 08:28:40;;;;;;;5.95;3.20;;;;;;;;;;5070365;28;20379;-68
2023/01/27 08:31:07;;;;;;;7.45;3.80;;;;;;;;;;5064766;28;20052;-68
2023/01/27 08:33:33;;;;;;;4.53;3.45;;;;;;;;;;5063927;28;20040;-68
2023/01/27 08:36:04;;;;;;;6.28;3.35;;;;;;;;;;5071128;28;20037;-68
2023/01/27 08:38:30;;;;;;;3.83;2.97;;;;;;;;;;5070404;28;20391;-67
2023/01/27 08:40:56;;;;;;;4.75;3.03;;;;;;;;;;5074029;28;20514;-67
2023/01/27 08:43:22;;;;;;;6.72;3.28;;;;;;;;;;5066325;28;20162;-68
2023/01/27 08:45:50;;;;;;;5.50;3.78;;;;;;;;;;5070387;28;20495;-67
2023/01/27 08:48:16;;;;;;;7.93;3.70;;;;;;;;;;5066181;28;20036;-67
2023/01/27 08:50:42;;;;;;;6.18;4.03;;;;;;;;;;5061908;28;20041;-68
2023/01/27 08:53:08;;;;;;;5.15;3.40;;;;;;;;;;5063400;28;20491;-67
2023/01/27 08:55:34;;;;;;;9.23;3.88;;;;;;;;;;5066095;28;20135;-67
2023/01/27 08:58:00;;;;;;;12.57;4.90;;;;;;;;;;5069919;28;20557;-66
2023/01/27 09:00:26;;;;;;;6.57;4.13;;;;;;;;;;5072134;28;20043;-68
2023/01/27 09:02:52;;;;;;;7.13;4.07;;;;;;;;;;5069948;28;20043;-68
2023/01/27 09:05:19;;;;;;;7.22;4.20;;;;;;;;;;5073753;28;20398;-67
2023/01/27 09:07:45;;;;;;;7.90;4.88;;;;;;;;;;5074358;28;20120;-68
2023/01/27 09:10:12;;;;;;;6.50;3.92;;;;;;;;;;5073325;28;20482;-67
2023/01/27 09:12:38;;;;;;;5.65;4.07;;;;;;;;;;5066232;28;20060;-68
2023/01/27 09:15:04;;;;;;;6.00;4.15;;;;;;;;;;5084546;22;20036;-62
2023/01/27 09:17:30;;;;;;;5.03;3.33;;;;;;;;;;5054749;28;20739;-61
2023/01/27 09:19:56;;;;;;;6.97;4.03;;;;;;;;;;5053850;28;20094;-61
2023/01/27 09:22:22;;;;;;;6.85;4.10;;;;;;;;;;5070039;28;20040;-62
2023/01/27 09:24:48;;;;;;;6.28;4.00;;;;;;;;;;5071785;28;20040;-61
2023/01/27 09:27:14;;;;;;;5.78;4.10;;;;;;;;;;5058544;28;20384;-61
2023/01/27 09:29:40;;;;;;;7.47;3.95;;;;;;;;;;5072073;28;20059;-61
2023/01/27 09:32:07;;;;;;;6.18;3.92;;;;;;;;;;5073524;28;20045;-61
2023/01/27 09:34:34;;;;;;;6.28;3.45;;;;;;;;;;5055672;28;20041;-61
2023/01/27 09:37:05;;;;;;;7.88;3.72;;;;;;;;;;5055788;28;20040;-61
2023/01/27 09:39:33;;;;;;;9.02;5.07;;;;;;;;;;5072620;28;20044;-61
2023/01/27 09:42:04;;;;;;;7.78;4.05;;;;;;;;;;5070106;28;20078;-62
2023/01/27 09:44:43;;;;;;;6.13;4.03;;;;;;;;;;5051668;28;20548;-62
2023/01/27 09:47:18;;;;;;;7.47;2.92;;;;;;;;;;5072181;28;20037;-61
2023/01/27 09:50:02;;;;;;;4.88;3.20;;;;;;;;;;5062898;28;20037;-61
2023/01/27 09:52:31;;;;;;;5.90;3.92;;;;;;;;;;5067099;28;20138;-61
2023/01/27 09:54:57;;;;;;;5.60;3.65;;;;;;;;;;5044649;28;20048;-61
2023/01/27 09:57:26;;;;;;;5.00;3.10;;;;;;;;;;5067456;28;20036;-61
2023/01/27 10:00:15;;;;;;;6.82;3.50;;;;;;;;;;5069397;28;20043;-62
2023/01/27 10:02:56;;;;;;;5.97;3.17;;;;;;;;;;5065267;28;20040;-62
2023/01/27 10:05:45;;;;;;;4.40;3.20;;;;;;;;;;5072039;28;20064;-62
2023/01/27 10:08:17;;;;;;;3.85;3.05;;;;;;;;;;5058317;28;20037;-61
2023/01/27 10:10:43;;;;;;;4.07;2.70;;;;;;;;;;5052650;28;20127;-62
2023/01/27 10:13:16;;;;;;;4.75;3.42;;;;;;;;;;5055057;28;20060;-61
2023/01/27 10:16:02;;;;;;;6.45;3.60;;;;;;;;;;5062860;28;20375;-61
2023/01/27 10:18:46;;;;;;;5.65;3.47;;;;;;;;;;5054835;28;20079;-62
2023/01/27 10:21:21;;;;;;;5.03;3.65;;;;;;;;;;5054157;28;20036;-61
2023/01/27 10:23:47;;;;;;;3.97;2.92;;;;;;;;;;5072584;28;20036;-61
2023/01/27 10:26:20;;;;;;;4.00;2.85;;;;;;;;;;5072650;28;20105;-61
2023/01/27 10:28:49;;;;;;;5.43;3.03;;;;;;;;;;5070578;28;20398;-61
2023/01/27 10:31:26;;;;;;;6.75;3.25;;;;;;;;;;5073271;28;20079;-61
2023/01/27 10:33:53;;;;;;;4.03;2.85;;;;;;;;;;5066518;28;20166;-61
2023/01/27 10:36:25;;;;;;;5.28;3.70;;;;;;;;;;5072441;28;20044;-61
2023/01/27 10:38:51;;;;;;;3.85;3.15;;;;;;;;;;5072677;28;20041;-61
2023/01/27 10:41:26;;;;;;;8.13;3.72;;;;;;;;;;5072821;28;20094;-62
2023/01/27 10:43:52;;;;;;;4.80;2.90;;;;;;;;;;5068728;28;20041;-62
2023/01/27 10:46:37;;;;;;;5.68;2.95;;;;;;;;;;5066189;28;20035;-62
2023/01/27 10:49:21;;;;;;;4.65;2.75;;;;;;;;;;5063830;28;20028;-61
2023/01/27 10:51:50;;;;;;;3.88;2.78;;;;;;;;;;5072385;28;20487;-62
2023/01/27 10:54:22;;;;;;;4.00;2.42;;;;;;;;;;5072060;28;20033;-61
2023/01/27 10:56:54;;;;;;;4.75;2.85;;;;;;;;;;5071626;28;20399;-61
2023/01/27 10:59:22;;;;;;;4.13;3.17;;;;;;;;;;5066144;28;20032;-61
2023/01/27 11:01:54;;;;;;;6.55;2.75;;;;;;;;;;5071823;28;20624;-61
2023/01/27 11:04:20;;;;;;;4.55;2.88;;;;;;;;;;5045450;28;20051;-61
2023/01/27 11:06:48;;;;;;;5.00;2.35;;;;;;;;;;5072452;28;20036;-62
2023/01/27 11:09:17;;;;;;;4.65;2.83;;;;;;;;;;5070534;28;20491;-62
2023/01/27 11:11:44;;;;;;;3.03;2.55;;;;;;;;;;5052629;28;20094;-61
2023/01/27 11:14:14;;;;;;;4.15;2.53;;;;;;;;;;5053754;28;20037;-62
2023/01/27 11:16:42;;;;;;;3.40;2.70;;;;;;;;;;5070325;28;20045;-62
2023/01/27 11:19:32;;;;;;;6.00;2.58;;;;;;;;;;5071934;28;20028;-62
2023/01/27 11:21:58;;;;;;;4.70;2.95;;;;;;;;;;5061567;28;20109;-62
2023/01/27 11:24:28;;;;;;;4.25;2.60;;;;;;;;;;5071112;28;20042;-62
2023/01/27 11:27:17;;;;;;;5.65;3.00;;;;;;;;;;5052674;28;20075;-62
2023/01/27 11:29:48;;;;;;;3.30;2.65;;;;;;;;;;5059816;28;20044;-62
2023/01/27 11:32:14;;;;;;;;;;;;;;;;;;5071008;28;20070;-61
2023/01/27 11:35:00;;;;;;;5.55;2.95;;;;;;;;;;5053399;28;19920;-62
2023/01/27 11:37:52;;;;;;;4.15;2.58;;;;;;;;;;5071907;28;20099;-62
2023/01/27 11:40:21;;;;;;;5.10;3.10;;;;;;;;;;5067796;28;20059;-62
2023/01/27 11:42:47;;;;;;;4.47;2.67;;;;;;;;;;5064393;28;20036;-62
2023/01/27 11:45:15;;;;;;;5.35;2.67;;;;;;;;;;5053408;28;20481;-62
2023/01/27 11:47:41;;;;;;;4.93;2.90;;;;;;;;;;5071972;28;20044;-61
2023/01/27 11:50:12;;;;;;;4.80;3.15;;;;;;;;;;5070889;28;20127;-61
2023/01/27 11:52:38;;;;;;;5.60;2.58;;;;;;;;;;5053901;28;20489;-62
2023/01/27 11:55:07;;;;;;;6.10;2.85;;;;;;;;;;5066856;28;20089;-62
2023/01/27 11:57:35;;;;;;;4.72;2.40;;;;;;;;;;5066035;28;20637;-62
2023/01/27 12:00:07;;;;;;;2.60;2.00;;;;;;;;;;5062734;28;20379;-61
2023/01/27 12:02:33;;;;;;;4.45;2.22;;;;;;;;;;5070891;28;20039;-62
2023/01/27 12:05:14;;;;;;;4.95;2.55;;;;;;;;;;5062084;28;20032;-62
2023/01/27 12:07:43;;;;;;;3.83;2.65;;;;;;;;;;5053414;28;20119;-62
2023/01/27 12:10:28;;;;;;;4.00;2.47;;;;;;;;;;5053146;28;20056;-62
2023/01/27 12:12:54;;;;;;;4.35;2.28;;;;;;;;;;5071056;28;20447;-62
2023/01/27 12:15:21;;;;;;;2.50;2.10;;;;;;;;;;5074850;28;20036;-61
2023/01/27 12:17:50;;;;;;;3.10;2.03;;;;;;;;;;5075437;28;20048;-62
2023/01/27 12:20:19;;;;;;;2.30;1.98;;;;;;;;;;5075256;28;20543;-61
2023/01/27 12:22:49;;;;;;;2.95;2.40;;;;;;;;;;5073119;28;20040;-61
2023/01/27 12:25:17;;;;;;;2.58;2.25;;;;;;;;;;5068338;28;20028;-62
2023/01/27 12:27:52;;;;;;;3.28;2.50;;;;;;;;;;5065991;28;20116;-62
2023/01/27 12:30:22;;;;;;;3.10;2.45;;;;;;;;;;5075561;28;20036;-61
2023/01/27 12:32:48;;;;;;;3.20;2.03;;;;;;;;;;5074485;28;20128;-62
2023/01/27 12:35:23;;;;;;;2.30;2.10;;;;;;;;;;5067662;28;20044;-61
2023/01/27 12:37:54;;;;;;;2.17;1.98;;;;;;;;;;5066113;28;20388;-61
2023/01/27 12:40:24;;;;;;;2.80;2.10;;;;;;;;;;5055689;28;20051;-61
2023/01/27 12:43:02;;;;;;;2.60;2.40;;;;;;;;;;5058179;28;20094;-61
2023/01/27 12:45:28;;;;;;;2.55;1.90;;;;;;;;;;5075070;28;20342;-61
2023/01/27 12:48:00;;;;;;;2.53;2.15;;;;;;;;;;5074911;28;20044;-62
2023/01/27 12:50:32;;;;;;;3.95;2.47;;;;;;;;;;5074303;28;20101;-61
2023/01/27 12:53:07;;;;;;;3.22;1.80;;;;;;;;;;5047922;28;20048;-61
2023/01/27 12:55:34;;;;;;;2.80;2.15;;;;;;;;;;5073184;28;20514;-62
2023/01/27 12:58:01;;;;;;;3.47;1.90;;;;;;;;;;5065245;28;20037;-62
2023/01/27 13:00:28;;;;;;;3.30;2.40;;;;;;;;;;5074379;28;20040;-61
2023/01/27 13:03:00;;;;;;;3.25;2.10;;;;;;;;;;5073970;28;20044;-61
2023/01/27 13:05:26;;;;;;;3.70;2.20;;;;;;;;;;5054876;28;20041;-62
2023/01/27 13:07:53;;;;;;;3.50;1.88;;;;;;;;;;5074510;28;20064;-62
2023/01/27 13:10:21;;;;;;;2.97;1.98;;;;;;;;;;5068488;28;20043;-62
2023/01/27 13:12:49;;;;;;;2.30;2.10;;;;;;;;;;5068963;28;20037;-61
2023/01/27 13:15:18;;;;;;;2.33;2.03;;;;;;;;;;5055714;28;20045;-61
2023/01/27 13:17:44;;;;;;;1.70;1.55;;;;;;;;;;5074472;28;20071;-61
2023/01/27 13:20:24;;;;;;;2.85;1.50;;;;;;;;;;5074692;28;20041;-61
2023/01/27 13:22:53;;;;;;;1.90;1.80;;;;;;;;;;5074006;28;20485;-62
2023/01/27 13:25:21;;;;;;;1.80;1.70;;;;;;;;;;5073346;28;20124;-61
2023/01/27 13:27:48;;;;;;;3.80;2.00;;;;;;;;;;5072076;28;20119;-62
2023/01/27 13:30:20;;;;;;;1.70;1.60;;;;;;;;;;5073516;28;20040;-62
2023/01/27 13:32:48;;;;;;;2.00;1.80;;;;;;;;;;5073911;28;20036;-62
2023/01/27 13:35:18;;;;;;;2.50;1.90;;;;;;;;;;5074209;28;20047;-62
2023/01/27 13:37:48;;;;;;;2.20;1.50;;;;;;;;;;5071402;28;20102;-62
2023/01/27 13:40:20;;;;;;;2.22;1.70;;;;;;;;;;5073051;28;20044;-62
2023/01/27 13:43:00;;;;;;;1.70;1.60;;;;;;;;;;5073479;28;20127;-61
2023/01/27 13:45:40;;;;;;;1.80;1.70;;;;;;;;;;5073773;28;20036;-62
2023/01/27 13:48:09;;;;;;;2.35;1.70;;;;;;;;;;5074166;28;20040;-61
2023/01/27 13:50:35;;;;;;;1.92;1.80;;;;;;;;;;5073234;28;20573;-62
2023/01/27 13:53:01;;;;;;;1.95;1.70;;;;;;;;;;5071993;28;20127;-61
2023/01/27 13:55:46;;;;;;;2.80;1.85;;;;;;;;;;5072339;28;20070;-62
2023/01/27 13:58:19;;;;;;;2.10;1.90;;;;;;;;;;5066919;28;20042;-61
2023/01/27 14:00:57;;;;;;;2.17;1.73;;;;;;;;;;5073741;28;20498;-62
2023/01/27 14:03:44;;;;;;;3.60;1.75;;;;;;;;;;5072955;28;20032;-61
2023/01/27 14:06:19;;;;;;;3.60;1.70;;;;;;;;;;5066185;28;20115;-62
2023/01/27 14:08:50;;;;;;;1.90;1.70;;;;;;;;;;5072904;28;20036;-62
2023/01/27 14:11:16;;;;;;;2.70;1.80;;;;;;;;;;5072898;28;20055;-61
2023/01/27 14:13:42;;;;;;;1.90;1.50;;;;;;;;;;5072961;28;20048;-61
2023/01/27 14:16:09;;;;;;;2.63;1.45;;;;;;;;;;5073549;28;20201;-62
2023/01/27 14:18:43;;;;;;;1.60;1.50;;;;;;;;;;5072186;28;20096;-62
2023/01/27 14:21:09;;;;;;;1.75;1.50;;;;;;;;;;5063088;28;20705;-62
2023/01/27 14:23:42;;;;;;;1.58;1.38;;;;;;;;;;5072900;28;20490;-62
2023/01/27 14:26:19;;;;;;;2.65;1.65;;;;;;;;;;5053106;28;20048;-61
2023/01/27 14:29:01;;;;;;;2.67;1.80;;;;;;;;;;5053502;28;20071;-61
2023/01/27 14:31:48;;;;;;;1.92;1.52;;;;;;;;;;5052464;28;20123;-62
2023/01/27 14:34:35;;;;;;;1.60;1.40;;;;;;;;;;5054162;28;20574;-62
2023/01/27 14:37:15;;;;;;;2.15;1.58;;;;;;;;;;5068220;28;20036;-62
2023/01/27 14:40:08;;;;;;;1.92;1.75;;;;;;;;;;5065049;28;20403;-61
2023/01/27 14:42:46;;;;;;;1.65;1.20;;;;;;;;;;5041861;28;20120;-62
2023/01/27 14:45:15;;;;;;;1.10;1.00;;;;;;;;;;5065372;28;20074;-62
2023/01/27 14:47:53;;;;;;;2.28;1.40;;;;;;;;;;5068698;28;20056;-61
2023/01/27 14:50:28;;;;;;;1.45;1.35;;;;;;;;;;5070926;28;20089;-61
2023/01/27 14:52:57;;;;;;;1.50;1.40;;;;;;;;;;5065478;28;20040;-61
2023/01/27 14:55:39;;;;;;;1.98;1.65;;;;;;;;;;5065603;28;20044;-62
2023/01/27 14:58:17;;;;;;;1.73;1.63;;;;;;;;;;5067140;28;20481;-61
2023/01/27 15:00:55;;;;;;;1.92;1.73;;;;;;;;;;5069990;28;20037;-61
2023/01/27 15:03:40;;;;;;;3.00;1.83;;;;;;;;;;5068459;28;20558;-62
2023/01/27 15:06:15;;;;;;;2.72;1.90;;;;;;;;;;5062401;28;20044;-62
2023/01/27 15:09:03;;;;;;;1.80;1.70;;;;;;;;;;5065828;28;20235;-62
2023/01/27 15:11:47;;;;;;;3.45;1.92;;;;;;;;;;5069699;28;20037;-61
2023/01/27 15:14:46;;;;;;;2.05;1.85;;;;;;;;;;5061133;22;20048;-68
2023/01/27 15:17:15;;;;;;;1.85;1.75;;;;;;;;;;5029410;28;20101;-69
2023/01/27 15:20:00;;;;;;;3.78;2.42;;;;;;;;;;5050271;28;20041;-68
2023/01/27 15:22:29;;;;;;;2.80;2.25;;;;;;;;;;5040579;28;20140;-68
2023/01/27 15:24:58;;;;;;;2.08;1.88;;;;;;;;;;5046519;28;20079;-68
2023/01/27 15:27:25;;;;;;;2.40;2.17;;;;;;;;;;5047142;28;20072;-68